createdAt,value
2019-05-14T00:00:43.072Z,26.70
2019-05-14T00:03:13.612Z,26.70
2019-05-14T00:05:44.308Z,26.70
2019-05-14T00:08:17.451Z,26.70
2019-05-14T00:10:46.870Z,26.70
2019-05-14T00:13:17.427Z,26.70
2019-05-14T00:15:47.806Z,26.70
2019-05-14T00:18:18.191Z,26.80
2019-05-14T00:20:51.032Z,26.80
2019-05-14T00:23:21.502Z,26.90
2019-05-14T00:25:52.467Z,26.90
2019-05-14T00:28:22.927Z,26.90
2019-05-14T00:30:53.861Z,26.90
2019-05-14T00:33:24.274Z,26.90
2019-05-14T00:35:54.811Z,26.90
2019-05-14T00:38:25.463Z,27.00
2019-05-14T00:40:55.884Z,27.00
2019-05-14T00:43:26.115Z,27.00
2019-05-14T00:45:56.438Z,27.00
2019-05-14T00:48:26.674Z,27.00
2019-05-14T00:50:56.877Z,27.00
2019-05-14T00:53:27.261Z,27.00
2019-05-14T00:55:57.520Z,27.10
2019-05-14T00:58:28.281Z,27.10
2019-05-14T01:00:58.711Z,27.20
2019-05-14T01:03:28.966Z,27.20
2019-05-14T01:05:59.140Z,27.20
2019-05-14T01:08:31.778Z,27.30
2019-05-14T01:11:01.637Z,27.30
2019-05-14T01:16:12.271Z,27.30
2019-05-14T01:18:43.489Z,27.40
2019-05-14T01:21:13.778Z,27.40
2019-05-14T01:23:44.260Z,27.40
2019-05-14T01:26:15.363Z,27.40
2019-05-14T01:28:45.767Z,27.40
2019-05-14T01:31:23.634Z,27.50
2019-05-14T01:33:53.829Z,27.50
2019-05-14T01:36:24.369Z,27.50
2019-05-14T01:38:54.759Z,27.60
2019-05-14T01:41:25.073Z,27.60
2019-05-14T01:43:55.415Z,27.60
2019-05-14T01:46:25.629Z,27.60
2019-05-14T01:48:56.341Z,27.60
2019-05-14T01:51:26.533Z,27.60
2019-05-14T01:53:57.210Z,27.60
2019-05-14T01:56:27.722Z,27.60
2019-05-14T01:58:57.966Z,27.50
2019-05-14T02:01:28.239Z,27.60
2019-05-14T02:06:01.372Z,27.60
2019-05-14T02:08:32.422Z,27.60
2019-05-14T02:11:02.693Z,27.60
2019-05-14T02:13:35.466Z,27.70
2019-05-14T02:16:06.193Z,27.70
2019-05-14T02:18:36.741Z,27.70
2019-05-14T02:21:07.234Z,27.80
2019-05-14T02:24:42.146Z,27.90
2019-05-14T02:27:13.078Z,27.90
2019-05-14T02:29:43.686Z,28.00
2019-05-14T02:32:13.967Z,28.10
2019-05-14T02:34:44.183Z,28.10
2019-05-14T02:37:14.557Z,28.20
2019-05-14T02:39:45.230Z,28.30
2019-05-14T02:42:19.436Z,28.30
2019-05-14T02:44:48.990Z,28.40
2019-05-14T02:47:19.843Z,28.50
2019-05-14T02:49:50.423Z,28.50
2019-05-14T02:52:20.968Z,28.50
2019-05-14T02:54:51.285Z,28.50
2019-05-14T02:57:21.577Z,28.50
2019-05-14T02:59:51.821Z,28.50
2019-05-14T03:02:22.211Z,28.60
2019-05-14T03:04:53.076Z,28.60
2019-05-14T03:07:23.432Z,28.70
2019-05-14T03:09:53.576Z,28.70
2019-05-14T03:12:24.277Z,28.80
2019-05-14T03:14:54.550Z,28.80
2019-05-14T03:17:24.720Z,28.90
2019-05-14T03:19:55.317Z,28.90
2019-05-14T03:22:31.995Z,29.00
2019-05-14T03:24:59.768Z,29.00
2019-05-14T03:27:30.348Z,29.10
2019-05-14T03:30:00.532Z,29.20
2019-05-14T03:32:33.003Z,29.30
2019-05-14T03:35:04.207Z,29.40
2019-05-14T03:37:34.380Z,29.40
2019-05-14T03:40:09.231Z,29.60
2019-05-14T03:43:19.624Z,29.70
2019-05-14T03:45:49.546Z,29.90
2019-05-14T03:48:19.533Z,30.00
2019-05-14T03:50:49.928Z,30.10
2019-05-14T03:53:20.768Z,30.20
2019-05-14T03:55:51.224Z,30.30
2019-05-14T03:58:21.690Z,30.40
2019-05-14T04:00:54.698Z,30.40
2019-05-14T04:03:25.461Z,30.40
2019-05-14T04:05:58.714Z,30.40
2019-05-14T04:08:29.461Z,30.50
2019-05-14T04:11:01.544Z,30.60
2019-05-14T04:13:34.007Z,30.70
2019-05-14T04:17:01.288Z,30.80
2019-05-14T04:19:25.182Z,30.90
2019-05-14T04:21:59.625Z,30.90
2019-05-14T04:24:31.262Z,31.00
2019-05-14T04:27:07.800Z,31.00
2019-05-14T04:29:39.427Z,31.10
2019-05-14T04:32:09.849Z,31.00
2019-05-14T04:34:41.842Z,31.00
2019-05-14T04:37:13.485Z,31.10
2019-05-14T04:39:43.897Z,31.10
2019-05-14T04:42:14.213Z,31.20
2019-05-14T04:45:34.169Z,31.30
2019-05-14T04:48:26.359Z,31.40
2019-05-14T04:50:36.267Z,31.60
2019-05-14T04:53:09.004Z,31.60
2019-05-14T04:55:40.084Z,31.60
2019-05-14T04:58:10.276Z,31.70
2019-05-14T05:00:40.674Z,31.70
2019-05-14T05:03:12.628Z,31.90
2019-05-14T05:05:42.777Z,32.00
2019-05-14T05:08:14.595Z,32.00
2019-05-14T05:10:45.101Z,31.90
2019-05-14T05:13:15.345Z,31.90
2019-05-14T05:15:48.490Z,32.00
2019-05-14T05:18:18.584Z,32.10
2019-05-14T05:20:50.549Z,32.10
2019-05-14T05:23:20.802Z,32.20
2019-05-14T05:25:51.117Z,32.30
2019-05-14T05:28:21.535Z,32.40
2019-05-14T05:30:51.854Z,32.40
2019-05-14T05:33:22.030Z,32.50
2019-05-14T05:35:52.736Z,32.60
2019-05-14T05:38:23.185Z,32.70
2019-05-14T05:40:56.586Z,32.70
2019-05-14T05:43:25.062Z,32.70
2019-05-14T05:45:55.430Z,32.70
2019-05-14T05:48:25.600Z,32.70
2019-05-14T05:50:58.854Z,32.70
2019-05-14T05:53:28.711Z,32.70
2019-05-14T05:55:59.523Z,32.80
2019-05-14T05:58:30.251Z,32.90
2019-05-14T06:01:00.524Z,32.90
2019-05-14T06:03:31.243Z,33.00
2019-05-14T06:06:01.649Z,33.00
2019-05-14T06:08:32.192Z,33.10
2019-05-14T06:11:02.559Z,33.10
2019-05-14T06:13:32.889Z,33.10
2019-05-14T06:16:03.179Z,33.20
2019-05-14T06:18:34.558Z,33.20
2019-05-14T06:21:05.149Z,33.30
2019-05-14T06:23:35.365Z,33.40
2019-05-14T06:26:11.028Z,33.40
2019-05-14T06:28:41.023Z,33.30
2019-05-14T06:31:10.074Z,33.20
2019-05-14T06:33:40.618Z,33.20
2019-05-14T06:36:14.351Z,33.20
2019-05-14T06:38:42.672Z,33.30
2019-05-14T06:41:13.093Z,33.30
2019-05-14T06:43:43.454Z,33.20
2019-05-14T06:46:13.758Z,33.10
2019-05-14T06:48:45.018Z,33.10
2019-05-14T06:51:15.551Z,33.00
2019-05-14T06:53:46.115Z,33.10
2019-05-14T06:56:18.971Z,33.10
2019-05-14T06:58:50.427Z,33.20
2019-05-14T07:01:20.864Z,33.30
2019-05-14T07:03:51.463Z,33.30
2019-05-14T07:06:21.773Z,33.40
2019-05-14T07:08:52.761Z,33.40
2019-05-14T07:11:23.550Z,33.40
2019-05-14T07:13:53.872Z,33.40
2019-05-14T07:16:24.189Z,33.40
2019-05-14T07:18:54.771Z,33.40
2019-05-14T07:21:25.289Z,33.30
2019-05-14T07:23:56.034Z,33.20
2019-05-14T07:26:29.331Z,33.20
2019-05-14T07:28:59.058Z,33.10
2019-05-14T07:31:31.584Z,33.20
2019-05-14T07:34:01.753Z,33.10
2019-05-14T07:36:31.914Z,33.00
2019-05-14T07:39:02.373Z,32.80
2019-05-14T07:41:32.553Z,32.70
2019-05-14T07:44:03.599Z,32.60
2019-05-14T07:46:34.029Z,32.50
2019-05-14T07:49:08.568Z,32.40
2019-05-14T07:51:38.577Z,32.40
2019-05-14T07:54:08.458Z,32.30
2019-05-14T07:56:38.637Z,32.30
2019-05-14T07:59:09.076Z,32.20
2019-05-14T08:01:39.959Z,32.10
2019-05-14T08:04:11.439Z,32.20
2019-05-14T08:06:41.926Z,32.20
2019-05-14T08:09:12.495Z,32.10
2019-05-14T08:11:43.199Z,32.10
2019-05-14T08:14:13.594Z,32.10
2019-05-14T08:19:27.121Z,32.10
2019-05-14T08:21:55.163Z,32.20
2019-05-14T08:24:27.149Z,32.10
2019-05-14T08:26:57.904Z,32.10
2019-05-14T08:29:28.679Z,32.10
2019-05-14T08:31:59.302Z,32.00
2019-05-14T08:34:32.297Z,32.00
2019-05-14T08:37:03.997Z,32.00
2019-05-14T08:39:33.249Z,31.90
2019-05-14T08:42:04.397Z,31.90
2019-05-14T08:44:34.756Z,31.90
2019-05-14T08:47:05.148Z,31.80
2019-05-14T08:49:44.902Z,31.70
2019-05-14T08:52:08.790Z,31.60
2019-05-14T08:54:39.214Z,31.60
2019-05-14T08:57:10.052Z,31.50
2019-05-14T08:59:40.854Z,31.50
2019-05-14T09:02:11.196Z,31.50
2019-05-14T09:04:43.325Z,31.50
2019-05-14T09:07:13.350Z,31.60
2019-05-14T09:09:43.631Z,31.60
2019-05-14T09:12:13.917Z,31.60
2019-05-14T09:14:44.315Z,31.60
2019-05-14T09:17:14.954Z,31.60
2019-05-14T09:19:58.828Z,31.60
2019-05-14T09:22:18.460Z,31.70
2019-05-14T09:24:49.364Z,31.70
2019-05-14T09:27:19.740Z,31.80
2019-05-14T09:29:50.093Z,31.90
2019-05-14T09:32:20.549Z,31.90
2019-05-14T09:34:50.715Z,32.10
2019-05-14T09:37:21.194Z,32.20
2019-05-14T09:39:51.380Z,32.30
2019-05-14T09:42:21.739Z,32.40
2019-05-14T09:44:52.188Z,32.40
2019-05-14T09:47:22.493Z,32.50
2019-05-14T09:49:52.895Z,32.60
2019-05-14T09:52:23.151Z,32.60
2019-05-14T09:54:53.653Z,32.60
2019-05-14T09:57:23.861Z,32.60
2019-05-14T09:59:54.344Z,32.60
2019-05-14T10:02:24.619Z,32.60
2019-05-14T10:04:55.066Z,32.50
2019-05-14T10:07:25.393Z,32.50
2019-05-14T10:09:55.808Z,32.60
2019-05-14T10:12:26.093Z,32.50
2019-05-14T10:14:59.042Z,32.50
2019-05-14T10:17:28.993Z,32.40
2019-05-14T10:19:59.687Z,32.40
2019-05-14T10:22:30.161Z,32.30
2019-05-14T10:25:00.455Z,32.30
2019-05-14T10:27:30.922Z,32.30
2019-05-14T10:30:01.442Z,32.30
2019-05-14T10:32:31.721Z,32.20
2019-05-14T10:35:01.998Z,32.10
2019-05-14T10:37:32.690Z,32.00
2019-05-14T10:40:02.977Z,32.00
2019-05-14T10:42:33.186Z,31.90
2019-05-14T10:45:03.938Z,31.90
2019-05-14T10:47:34.244Z,31.90
2019-05-14T10:50:04.723Z,31.80
2019-05-14T10:52:35.303Z,31.70
2019-05-14T10:55:08.029Z,31.50
2019-05-14T10:57:37.994Z,31.50
2019-05-14T11:00:09.152Z,31.30
2019-05-14T11:02:39.435Z,31.20
2019-05-14T11:05:10.138Z,31.00
2019-05-14T11:07:41.705Z,30.80
2019-05-14T11:10:12.293Z,30.70
2019-05-14T11:12:42.522Z,30.50
2019-05-14T11:15:14.291Z,30.50
2019-05-14T11:17:44.897Z,30.20
2019-05-14T11:20:18.983Z,30.20
2019-05-14T11:22:48.993Z,30.00
2019-05-14T11:25:19.820Z,29.80
2019-05-14T11:27:50.232Z,29.70
2019-05-14T11:30:20.810Z,29.60
2019-05-14T11:32:51.051Z,29.50
2019-05-14T11:35:21.270Z,29.40
2019-05-14T11:37:51.847Z,29.30
2019-05-14T11:40:22.200Z,29.30
2019-05-14T11:42:52.653Z,29.30
2019-05-14T11:45:24.368Z,29.30
2019-05-14T11:47:54.594Z,29.30
2019-05-14T11:50:24.827Z,29.40
2019-05-14T11:52:55.206Z,29.40
2019-05-14T11:55:25.730Z,29.40
2019-05-14T11:57:58.093Z,29.40
2019-05-14T12:00:29.423Z,29.50
2019-05-14T12:02:59.542Z,29.50
2019-05-14T12:05:30.416Z,29.50
2019-05-14T12:08:00.904Z,29.50
2019-05-14T12:10:31.309Z,29.50
2019-05-14T12:13:01.428Z,29.50
2019-05-14T12:15:31.614Z,29.50
2019-05-14T12:18:01.952Z,29.50
2019-05-14T12:20:32.317Z,29.40
2019-05-14T12:23:02.590Z,29.50
2019-05-14T12:25:32.778Z,29.50
2019-05-14T12:28:02.998Z,29.50
2019-05-14T12:30:33.551Z,29.50
2019-05-14T12:33:03.855Z,29.50
2019-05-14T12:35:34.159Z,29.40
2019-05-14T12:38:04.314Z,29.40
2019-05-14T12:40:34.859Z,29.40
2019-05-14T12:43:05.137Z,29.40
2019-05-14T12:45:35.604Z,29.40
2019-05-14T12:48:05.926Z,29.40
2019-05-14T12:50:38.888Z,29.40
2019-05-14T12:53:08.463Z,29.30
2019-05-14T12:55:40.015Z,29.30
2019-05-14T12:58:10.689Z,29.30
2019-05-14T13:00:40.981Z,29.30
2019-05-14T13:03:11.422Z,29.20
2019-05-14T13:05:41.726Z,29.20
2019-05-14T13:08:12.144Z,29.20
2019-05-14T13:10:42.583Z,29.10
2019-05-14T13:13:12.862Z,29.10
2019-05-14T13:15:43.380Z,29.10
2019-05-14T13:18:13.491Z,29.00
2019-05-14T13:20:44.028Z,28.90
2019-05-14T13:23:14.462Z,28.80
2019-05-14T13:25:44.692Z,28.80
2019-05-14T13:28:14.835Z,28.80
2019-05-14T13:30:45.103Z,28.80
2019-05-14T13:33:15.645Z,28.80
2019-05-14T13:35:48.223Z,28.90
2019-05-14T13:38:17.898Z,28.90
2019-05-14T13:40:49.136Z,28.90
2019-05-14T13:43:19.460Z,28.90
2019-05-14T13:45:49.892Z,28.90
2019-05-14T13:48:20.100Z,28.90
2019-05-14T13:50:50.293Z,28.80
2019-05-14T13:53:20.561Z,28.80
2019-05-14T13:55:57.624Z,28.80
2019-05-14T13:58:22.413Z,28.80
2019-05-14T14:00:52.754Z,28.80
2019-05-14T14:03:23.198Z,28.70
2019-05-14T14:05:53.479Z,28.70
2019-05-14T14:08:23.669Z,28.70
2019-05-14T14:10:54.384Z,28.60
2019-05-14T14:13:25.170Z,28.60
2019-05-14T14:15:55.593Z,28.60
2019-05-14T14:18:26.454Z,28.50
2019-05-14T14:20:56.980Z,28.50
2019-05-14T14:23:31.048Z,28.50
2019-05-14T14:25:59.770Z,28.50
2019-05-14T14:28:30.192Z,28.50
2019-05-14T14:31:00.580Z,28.50
2019-05-14T14:33:30.719Z,28.50
2019-05-14T14:36:00.902Z,28.50
2019-05-14T14:38:31.383Z,28.50
2019-05-14T14:41:01.568Z,28.50
2019-05-14T14:43:31.838Z,28.50
2019-05-14T14:46:06.306Z,28.50
2019-05-14T14:48:33.975Z,28.50
2019-05-14T14:51:04.326Z,28.40
2019-05-14T14:53:51.081Z,28.40
2019-05-14T14:56:09.060Z,28.40
2019-05-14T14:58:39.323Z,28.40
2019-05-14T15:01:09.820Z,28.30
2019-05-14T15:03:40.378Z,28.30
2019-05-14T15:06:10.869Z,28.30
2019-05-14T15:08:41.251Z,28.30
2019-05-14T15:11:11.747Z,28.30
2019-05-14T15:13:42.255Z,28.30
2019-05-14T15:16:13.867Z,28.20
2019-05-14T15:18:44.100Z,28.20
2019-05-14T15:21:14.410Z,28.20
2019-05-14T15:24:01.759Z,28.20
2019-05-14T15:26:19.267Z,28.20
2019-05-14T15:28:49.725Z,28.10
2019-05-14T15:31:20.252Z,28.10
2019-05-14T15:33:51.105Z,28.10
2019-05-14T15:36:21.553Z,28.10
2019-05-14T15:38:52.583Z,28.10
2019-05-14T15:41:23.315Z,28.10
2019-05-14T15:43:53.611Z,28.10
2019-05-14T15:46:23.863Z,28.10
2019-05-14T15:48:54.171Z,28.00
2019-05-14T15:51:24.419Z,28.10
2019-05-14T15:54:09.242Z,28.00
2019-05-14T15:56:29.622Z,28.00
2019-05-14T15:59:01.136Z,28.00
2019-05-14T16:01:30.653Z,27.90
2019-05-14T16:04:01.004Z,27.90
2019-05-14T16:06:31.269Z,27.80
2019-05-14T16:09:01.644Z,27.80
2019-05-14T16:11:31.983Z,27.80
2019-05-14T16:14:02.260Z,27.80
2019-05-14T16:16:32.812Z,27.70
2019-05-14T16:19:02.995Z,27.70
2019-05-14T16:21:33.429Z,27.70
2019-05-14T16:24:03.947Z,27.60
2019-05-14T16:26:34.140Z,27.60
2019-05-14T16:29:04.526Z,27.60
2019-05-14T16:31:37.376Z,27.60
2019-05-14T16:34:09.276Z,27.60
2019-05-14T16:36:41.365Z,27.60
2019-05-14T16:39:09.884Z,27.60
2019-05-14T16:41:40.187Z,27.60
2019-05-14T16:44:10.405Z,27.70
2019-05-14T16:46:40.666Z,27.70
2019-05-14T16:49:11.069Z,27.70
2019-05-14T16:51:41.603Z,27.70
2019-05-14T16:54:11.806Z,27.70
2019-05-14T16:56:42.298Z,27.60
2019-05-14T16:59:12.804Z,27.60
2019-05-14T17:01:43.044Z,27.60
2019-05-14T17:04:13.468Z,27.60
2019-05-14T17:06:43.878Z,27.60
2019-05-14T17:09:14.066Z,27.60
2019-05-14T17:11:44.436Z,27.60
2019-05-14T17:14:14.830Z,27.60
2019-05-14T17:16:45.354Z,27.60
2019-05-14T17:19:15.818Z,27.50
2019-05-14T17:21:48.554Z,27.50
2019-05-14T17:24:19.977Z,27.50
2019-05-14T17:26:49.593Z,27.50
2019-05-14T17:29:19.832Z,27.50
2019-05-14T17:31:50.102Z,27.50
2019-05-14T17:34:20.448Z,27.50
2019-05-14T17:36:50.794Z,27.50
2019-05-14T17:39:21.139Z,27.50
2019-05-14T17:41:51.473Z,27.50
2019-05-14T17:44:21.870Z,27.50
2019-05-14T17:46:52.136Z,27.50
2019-05-14T17:49:22.451Z,27.50
2019-05-14T17:51:52.817Z,27.50
2019-05-14T17:54:23.431Z,27.50
2019-05-14T17:56:53.609Z,27.50
2019-05-14T17:59:24.031Z,27.50
2019-05-14T18:01:54.236Z,27.50
2019-05-14T18:04:24.778Z,27.50
2019-05-14T18:06:55.278Z,27.50
2019-05-14T18:09:26.353Z,27.50
2019-05-14T18:11:58.503Z,27.50
2019-05-14T18:14:28.506Z,27.50
2019-05-14T18:16:59.102Z,27.50
2019-05-14T18:19:29.587Z,27.50
2019-05-14T18:21:59.846Z,27.50
2019-05-14T18:24:30.818Z,27.50
2019-05-14T18:27:01.520Z,27.50
2019-05-14T18:29:31.902Z,27.50
2019-05-14T18:32:02.278Z,27.50
2019-05-14T18:34:32.528Z,27.50
2019-05-14T18:37:02.971Z,27.50
2019-05-14T18:39:33.198Z,27.50
2019-05-14T18:42:03.501Z,27.40
2019-05-14T18:44:34.159Z,27.40
2019-05-14T18:47:04.458Z,27.40
2019-05-14T18:49:34.894Z,27.40
2019-05-14T18:52:05.520Z,27.40
2019-05-14T18:54:35.815Z,27.40
2019-05-14T18:57:11.327Z,27.40
2019-05-14T18:59:39.082Z,27.30
2019-05-14T19:02:09.521Z,27.20
2019-05-14T19:04:39.817Z,27.20
2019-05-14T19:07:10.041Z,27.20
2019-05-14T19:09:41.041Z,27.20
2019-05-14T19:12:11.298Z,27.20
2019-05-14T19:14:41.600Z,27.20
2019-05-14T19:17:11.900Z,27.20
2019-05-14T19:19:42.181Z,27.20
2019-05-14T19:22:12.383Z,27.20
2019-05-14T19:24:42.770Z,27.20
2019-05-14T19:27:12.975Z,27.20
2019-05-14T19:29:43.647Z,27.20
2019-05-14T19:32:13.863Z,27.10
2019-05-14T19:34:44.091Z,27.10
2019-05-14T19:37:14.369Z,27.10
2019-05-14T19:39:44.491Z,27.10
2019-05-14T19:42:14.908Z,27.00
2019-05-14T19:44:45.276Z,27.00
2019-05-14T19:47:15.461Z,27.00
2019-05-14T19:49:45.832Z,27.00
2019-05-14T19:52:15.988Z,27.00
2019-05-14T19:54:48.738Z,27.00
2019-05-14T19:57:18.564Z,26.90
2019-05-14T19:59:49.252Z,26.90
2019-05-14T20:02:19.764Z,26.90
2019-05-14T20:04:50.026Z,26.90
2019-05-14T20:07:20.282Z,26.90
2019-05-14T20:09:50.415Z,26.90
2019-05-14T20:12:20.626Z,26.90
2019-05-14T20:14:50.758Z,26.90
2019-05-14T20:17:21.121Z,26.90
2019-05-14T20:19:51.513Z,26.90
2019-05-14T20:22:21.755Z,26.90
2019-05-14T20:24:52.086Z,26.80
2019-05-14T20:27:22.453Z,26.80
2019-05-14T20:29:52.676Z,26.80
2019-05-14T20:32:23.114Z,26.70
2019-05-14T20:34:53.364Z,26.80
2019-05-14T20:37:23.565Z,26.80
2019-05-14T20:39:53.762Z,26.80
2019-05-14T20:42:23.958Z,26.90
2019-05-14T20:44:54.354Z,26.80
2019-05-14T20:47:24.665Z,26.90
2019-05-14T20:49:54.901Z,26.80
2019-05-14T20:52:25.300Z,26.80
2019-05-14T20:54:55.397Z,26.80
2019-05-14T20:57:30.571Z,26.80
2019-05-14T20:59:58.881Z,26.80
2019-05-14T21:02:29.464Z,26.80
2019-05-14T21:05:03.998Z,26.80
2019-05-14T21:07:31.854Z,26.70
2019-05-14T21:10:02.292Z,26.70
2019-05-14T21:12:32.373Z,26.70
2019-05-14T21:15:02.940Z,26.70
2019-05-14T21:17:33.319Z,26.70
2019-05-14T21:20:03.669Z,26.70
2019-05-14T21:22:33.941Z,26.70
2019-05-14T21:25:04.671Z,26.70
2019-05-14T21:27:44.435Z,26.80
2019-05-14T21:30:09.123Z,26.80
2019-05-14T21:32:42.407Z,26.80
2019-05-14T21:35:10.915Z,26.90
2019-05-14T21:37:41.078Z,26.90
2019-05-14T21:40:11.755Z,26.80
2019-05-14T21:42:41.959Z,26.90
2019-05-14T21:45:12.267Z,26.90
2019-05-14T21:47:42.469Z,26.90
2019-05-14T21:50:13.606Z,26.90
2019-05-14T21:52:43.786Z,26.90
2019-05-14T21:55:14.312Z,26.90
2019-05-14T21:57:54.289Z,26.90
2019-05-14T22:00:19.152Z,26.90
2019-05-14T22:02:49.455Z,26.90
2019-05-14T22:05:19.716Z,26.90
2019-05-14T22:07:49.968Z,26.90
2019-05-14T22:10:20.494Z,26.90
2019-05-14T22:12:50.784Z,26.90
2019-05-14T22:15:21.136Z,26.90
2019-05-14T22:17:51.324Z,26.90
2019-05-14T22:20:21.529Z,26.90
2019-05-14T22:22:51.886Z,26.90
2019-05-14T22:25:22.081Z,26.90
2019-05-14T22:27:53.124Z,26.90
2019-05-14T22:30:24.055Z,26.90
2019-05-14T22:32:54.451Z,26.80
2019-05-14T22:35:25.159Z,26.80
2019-05-14T22:37:55.293Z,26.80
2019-05-14T22:40:25.908Z,26.80
2019-05-14T22:43:00.049Z,26.80
2019-05-14T22:45:28.286Z,26.70
2019-05-14T22:47:59.083Z,26.70
2019-05-14T22:50:29.572Z,26.80
2019-05-14T22:52:59.873Z,26.80
2019-05-14T22:55:31.371Z,26.80
2019-05-14T22:58:01.836Z,26.80
2019-05-14T23:00:32.143Z,26.90
2019-05-14T23:03:02.635Z,26.90
2019-05-14T23:05:32.990Z,26.90
2019-05-14T23:08:03.332Z,26.90
2019-05-14T23:10:33.744Z,26.90
2019-05-14T23:13:03.928Z,26.90
2019-05-14T23:15:34.443Z,26.90
2019-05-14T23:18:04.654Z,26.90
2019-05-14T23:20:34.928Z,27.00
2019-05-14T23:23:05.063Z,27.00
2019-05-14T23:25:35.462Z,27.00
2019-05-14T23:28:05.763Z,27.10
2019-05-14T23:30:38.503Z,27.10
2019-05-14T23:33:07.994Z,27.10
2019-05-14T23:35:39.012Z,27.20
2019-05-14T23:38:09.722Z,27.20
2019-05-14T23:40:40.252Z,27.20
2019-05-14T23:43:10.717Z,27.20
2019-05-14T23:45:40.954Z,27.30
2019-05-14T23:48:11.303Z,27.30
2019-05-14T23:50:41.702Z,27.30
2019-05-14T23:53:12.038Z,27.40
2019-05-14T23:55:42.644Z,27.40
2019-05-14T23:58:12.942Z,27.40
